North Weymouth, Massachusetts
Current Conditions -  °F | °C
As of 2:54 PM on Thursday 30 Oct 2014 (Local Time) from KBOS Reporting Station
Broken Clouds Broken Clouds  
Wind Chill: 56°   Ceiling: 6500
Heat Index: 56°   Visibility: 10mi
Dew Point: 37°   Wind: 6mph
Humidity: 49%   Direction: 310°NW
Pressure: 29.91"   Gusts: NA
Location:  42.2435°N, 70.9438°W
Report Text: KBOS 301854Z 31005KT 10SM SCT045 BKN065 13/03 A2991 RMK AO2 SLP129 T01330028
Loading
Personal Weather Stations






























Interactive Weather Map
Tropical Storm Tracking
New forecast layout! Learn more

10-Day Weather Forecast

Advertisements
Track Severe Weather on mobile